sensor_id;sensor_type;location;lat;lon;timestamp;P1;durP1;ratioP1;P2;durP2;ratioP2
23282;SDS011;11810;51.178;3.878;2023-07-16T00:01:51;10.95;;;3.85;;
23282;SDS011;11810;51.178;3.878;2023-07-16T00:04:17;13.90;;;4.05;;
23282;SDS011;11810;51.178;3.878;2023-07-16T00:06:43;17.23;;;4.22;;
23282;SDS011;11810;51.178;3.878;2023-07-16T00:09:09;10.80;;;3.83;;
23282;SDS011;11810;51.178;3.878;2023-07-16T00:11:35;9.13;;;3.95;;
23282;SDS011;11810;51.178;3.878;2023-07-16T00:14:01;11.57;;;3.85;;
23282;SDS011;11810;51.178;3.878;2023-07-16T00:16:27;12.40;;;3.55;;
23282;SDS011;11810;51.178;3.878;2023-07-16T00:18:53;18.25;;;4.05;;
23282;SDS011;11810;51.178;3.878;2023-07-16T00:21:19;8.77;;;3.92;;
23282;SDS011;11810;51.178;3.878;2023-07-16T00:23:45;14.27;;;4.30;;
23282;SDS011;11810;51.178;3.878;2023-07-16T00:26:12;14.70;;;3.90;;
23282;SDS011;11810;51.178;3.878;2023-07-16T00:28:38;11.48;;;3.97;;
23282;SDS011;11810;51.178;3.878;2023-07-16T00:31:04;12.90;;;4.22;;
23282;SDS011;11810;51.178;3.878;2023-07-16T00:33:30;12.90;;;4.55;;
23282;SDS011;11810;51.178;3.878;2023-07-16T00:35:56;12.43;;;3.33;;
23282;SDS011;11810;51.178;3.878;2023-07-16T00:38:22;15.27;;;4.25;;
23282;SDS011;11810;51.178;3.878;2023-07-16T00:40:48;12.68;;;4.68;;
23282;SDS011;11810;51.178;3.878;2023-07-16T00:43:15;14.63;;;3.70;;
23282;SDS011;11810;51.178;3.878;2023-07-16T00:45:41;16.40;;;4.50;;
23282;SDS011;11810;51.178;3.878;2023-07-16T00:48:10;14.10;;;4.07;;
23282;SDS011;11810;51.178;3.878;2023-07-16T00:50:36;11.05;;;4.00;;
23282;SDS011;11810;51.178;3.878;2023-07-16T00:53:07;15.13;;;4.22;;
23282;SDS011;11810;51.178;3.878;2023-07-16T00:55:35;11.77;;;3.83;;
23282;SDS011;11810;51.178;3.878;2023-07-16T00:58:04;16.58;;;4.47;;
23282;SDS011;11810;51.178;3.878;2023-07-16T01:00:34;12.82;;;4.13;;
23282;SDS011;11810;51.178;3.878;2023-07-16T01:03:04;10.75;;;4.13;;
23282;SDS011;11810;51.178;3.878;2023-07-16T01:05:45;20.70;;;4.40;;
23282;SDS011;11810;51.178;3.878;2023-07-16T01:08:46;17.65;;;4.15;;
23282;SDS011;11810;51.178;3.878;2023-07-16T01:11:23;14.35;;;4.35;;
23282;SDS011;11810;51.178;3.878;2023-07-16T01:13:50;14.27;;;4.63;;
23282;SDS011;11810;51.178;3.878;2023-07-16T01:16:20;11.80;;;4.25;;
23282;SDS011;11810;51.178;3.878;2023-07-16T01:18:47;14.25;;;4.55;;
23282;SDS011;11810;51.178;3.878;2023-07-16T01:21:14;13.68;;;4.05;;
23282;SDS011;11810;51.178;3.878;2023-07-16T01:32:19;13.48;;;3.97;;
23282;SDS011;11810;51.178;3.878;2023-07-16T01:34:47;15.30;;;4.60;;
23282;SDS011;11810;51.178;3.878;2023-07-16T01:37:13;12.38;;;4.35;;
23282;SDS011;11810;51.178;3.878;2023-07-16T01:39:39;11.63;;;4.20;;
23282;SDS011;11810;51.178;3.878;2023-07-16T01:42:06;11.95;;;3.67;;
23282;SDS011;11810;51.178;3.878;2023-07-16T01:44:32;14.02;;;4.80;;
23282;SDS011;11810;51.178;3.878;2023-07-16T01:50:10;13.32;;;4.82;;
23282;SDS011;11810;51.178;3.878;2023-07-16T01:52:36;19.73;;;5.63;;
23282;SDS011;11810;51.178;3.878;2023-07-16T01:55:02;11.57;;;5.13;;
23282;SDS011;11810;51.178;3.878;2023-07-16T01:57:28;17.88;;;5.60;;
23282;SDS011;11810;51.178;3.878;2023-07-16T01:59:54;11.38;;;5.63;;
23282;SDS011;11810;51.178;3.878;2023-07-16T02:02:19;14.45;;;5.22;;
23282;SDS011;11810;51.178;3.878;2023-07-16T02:04:46;11.50;;;5.28;;
23282;SDS011;11810;51.178;3.878;2023-07-16T02:07:11;14.15;;;5.57;;
23282;SDS011;11810;51.178;3.878;2023-07-16T02:09:37;13.82;;;5.20;;
23282;SDS011;11810;51.178;3.878;2023-07-16T02:12:03;11.85;;;5.43;;
23282;SDS011;11810;51.178;3.878;2023-07-16T02:14:30;14.20;;;5.15;;
23282;SDS011;11810;51.178;3.878;2023-07-16T02:16:55;10.70;;;4.70;;
23282;SDS011;11810;51.178;3.878;2023-07-16T02:19:21;14.38;;;4.95;;
23282;SDS011;11810;51.178;3.878;2023-07-16T02:21:48;12.30;;;4.38;;
23282;SDS011;11810;51.178;3.878;2023-07-16T02:24:14;12.38;;;4.35;;
23282;SDS011;11810;51.178;3.878;2023-07-16T02:26:40;13.40;;;4.60;;
23282;SDS011;11810;51.178;3.878;2023-07-16T02:29:06;9.18;;;4.35;;
23282;SDS011;11810;51.178;3.878;2023-07-16T02:31:34;14.90;;;4.85;;
23282;SDS011;11810;51.178;3.878;2023-07-16T02:34:01;19.13;;;5.22;;
23282;SDS011;11810;51.178;3.878;2023-07-16T02:36:27;9.45;;;4.38;;
23282;SDS011;11810;51.178;3.878;2023-07-16T02:38:53;10.68;;;4.75;;
23282;SDS011;11810;51.178;3.878;2023-07-16T02:41:18;12.75;;;4.85;;
23282;SDS011;11810;51.178;3.878;2023-07-16T02:43:45;19.63;;;4.82;;
23282;SDS011;11810;51.178;3.878;2023-07-16T02:46:11;11.95;;;4.80;;
23282;SDS011;11810;51.178;3.878;2023-07-16T02:48:37;10.95;;;5.28;;
23282;SDS011;11810;51.178;3.878;2023-07-16T02:51:03;14.35;;;5.47;;
23282;SDS011;11810;51.178;3.878;2023-07-16T02:53:29;13.27;;;5.10;;
23282;SDS011;11810;51.178;3.878;2023-07-16T02:55:55;16.88;;;5.13;;
23282;SDS011;11810;51.178;3.878;2023-07-16T02:58:21;15.13;;;5.43;;
23282;SDS011;11810;51.178;3.878;2023-07-16T03:00:47;11.65;;;5.20;;
23282;SDS011;11810;51.178;3.878;2023-07-16T03:03:13;8.65;;;4.85;;
23282;SDS011;11810;51.178;3.878;2023-07-16T03:05:39;15.45;;;5.90;;
23282;SDS011;11810;51.178;3.878;2023-07-16T03:08:05;10.57;;;5.35;;
23282;SDS011;11810;51.178;3.878;2023-07-16T03:10:31;15.63;;;6.03;;
23282;SDS011;11810;51.178;3.878;2023-07-16T03:12:57;11.65;;;6.03;;
23282;SDS011;11810;51.178;3.878;2023-07-16T03:15:23;13.88;;;6.20;;
23282;SDS011;11810;51.178;3.878;2023-07-16T03:17:49;9.52;;;5.50;;
23282;SDS011;11810;51.178;3.878;2023-07-16T03:20:15;18.15;;;5.90;;
23282;SDS011;11810;51.178;3.878;2023-07-16T03:22:41;10.15;;;5.85;;
23282;SDS011;11810;51.178;3.878;2023-07-16T03:25:07;12.00;;;5.63;;
23282;SDS011;11810;51.178;3.878;2023-07-16T03:27:33;11.50;;;6.07;;
23282;SDS011;11810;51.178;3.878;2023-07-16T03:29:59;14.43;;;5.88;;
23282;SDS011;11810;51.178;3.878;2023-07-16T03:32:25;15.77;;;6.45;;
23282;SDS011;11810;51.178;3.878;2023-07-16T03:34:51;14.10;;;6.20;;
23282;SDS011;11810;51.178;3.878;2023-07-16T03:37:17;12.50;;;5.65;;
23282;SDS011;11810;51.178;3.878;2023-07-16T03:39:43;13.13;;;6.28;;
23282;SDS011;11810;51.178;3.878;2023-07-16T03:42:09;16.27;;;6.18;;
23282;SDS011;11810;51.178;3.878;2023-07-16T03:44:35;11.75;;;5.95;;
23282;SDS011;11810;51.178;3.878;2023-07-16T03:47:01;12.32;;;5.97;;
23282;SDS011;11810;51.178;3.878;2023-07-16T03:49:26;12.38;;;5.47;;
23282;SDS011;11810;51.178;3.878;2023-07-16T03:51:52;12.18;;;5.32;;
23282;SDS011;11810;51.178;3.878;2023-07-16T03:54:18;13.55;;;5.88;;
23282;SDS011;11810;51.178;3.878;2023-07-16T03:56:44;12.32;;;6.18;;
23282;SDS011;11810;51.178;3.878;2023-07-16T03:59:10;12.25;;;6.47;;
23282;SDS011;11810;51.178;3.878;2023-07-16T04:01:36;11.57;;;6.53;;
23282;SDS011;11810;51.178;3.878;2023-07-16T04:04:02;14.43;;;6.85;;
23282;SDS011;11810;51.178;3.878;2023-07-16T04:06:28;13.38;;;6.13;;
23282;SDS011;11810;51.178;3.878;2023-07-16T04:08:54;16.63;;;7.40;;
23282;SDS011;11810;51.178;3.878;2023-07-16T04:11:20;8.57;;;6.35;;
23282;SDS011;11810;51.178;3.878;2023-07-16T04:13:46;14.95;;;7.07;;
23282;SDS011;11810;51.178;3.878;2023-07-16T04:16:12;15.20;;;7.70;;
23282;SDS011;11810;51.178;3.878;2023-07-16T04:18:38;16.67;;;7.53;;
23282;SDS011;11810;51.178;3.878;2023-07-16T04:21:04;16.65;;;6.95;;
23282;SDS011;11810;51.178;3.878;2023-07-16T04:23:29;12.60;;;6.85;;
23282;SDS011;11810;51.178;3.878;2023-07-16T04:25:55;15.10;;;6.97;;
23282;SDS011;11810;51.178;3.878;2023-07-16T04:28:21;17.35;;;7.20;;
23282;SDS011;11810;51.178;3.878;2023-07-16T04:30:47;13.27;;;7.25;;
23282;SDS011;11810;51.178;3.878;2023-07-16T04:33:13;15.00;;;7.35;;
23282;SDS011;11810;51.178;3.878;2023-07-16T04:35:39;12.00;;;6.38;;
23282;SDS011;11810;51.178;3.878;2023-07-16T04:38:05;14.95;;;7.88;;
23282;SDS011;11810;51.178;3.878;2023-07-16T04:40:33;12.13;;;6.78;;
23282;SDS011;11810;51.178;3.878;2023-07-16T04:42:59;17.58;;;7.53;;
23282;SDS011;11810;51.178;3.878;2023-07-16T04:45:25;16.73;;;8.07;;
23282;SDS011;11810;51.178;3.878;2023-07-16T04:47:51;21.88;;;8.10;;
23282;SDS011;11810;51.178;3.878;2023-07-16T04:50:16;16.88;;;7.88;;
23282;SDS011;11810;51.178;3.878;2023-07-16T04:52:42;13.27;;;7.70;;
23282;SDS011;11810;51.178;3.878;2023-07-16T04:55:08;26.38;;;8.18;;
23282;SDS011;11810;51.178;3.878;2023-07-16T04:57:34;18.73;;;8.15;;
23282;SDS011;11810;51.178;3.878;2023-07-16T05:00:00;18.77;;;8.18;;
23282;SDS011;11810;51.178;3.878;2023-07-16T05:02:28;16.60;;;8.07;;
23282;SDS011;11810;51.178;3.878;2023-07-16T05:04:54;17.05;;;8.00;;
23282;SDS011;11810;51.178;3.878;2023-07-16T05:07:20;17.05;;;7.50;;
23282;SDS011;11810;51.178;3.878;2023-07-16T05:09:46;14.90;;;7.95;;
23282;SDS011;11810;51.178;3.878;2023-07-16T05:12:12;18.30;;;7.55;;
23282;SDS011;11810;51.178;3.878;2023-07-16T05:14:45;16.58;;;8.10;;
23282;SDS011;11810;51.178;3.878;2023-07-16T05:17:13;18.38;;;8.80;;
23282;SDS011;11810;51.178;3.878;2023-07-16T05:19:39;19.75;;;8.25;;
23282;SDS011;11810;51.178;3.878;2023-07-16T05:22:05;13.32;;;7.10;;
23282;SDS011;11810;51.178;3.878;2023-07-16T05:24:31;19.35;;;7.63;;
23282;SDS011;11810;51.178;3.878;2023-07-16T05:26:58;15.90;;;7.28;;
23282;SDS011;11810;51.178;3.878;2023-07-16T05:29:24;16.02;;;8.30;;
23282;SDS011;11810;51.178;3.878;2023-07-16T05:31:50;19.02;;;7.28;;
23282;SDS011;11810;51.178;3.878;2023-07-16T05:34:16;12.85;;;7.18;;
23282;SDS011;11810;51.178;3.878;2023-07-16T05:36:42;18.45;;;7.47;;
23282;SDS011;11810;51.178;3.878;2023-07-16T05:39:11;21.30;;;8.63;;
23282;SDS011;11810;51.178;3.878;2023-07-16T05:41:40;18.80;;;8.13;;
23282;SDS011;11810;51.178;3.878;2023-07-16T05:44:06;16.63;;;7.72;;
23282;SDS011;11810;51.178;3.878;2023-07-16T05:46:33;17.35;;;8.48;;
23282;SDS011;11810;51.178;3.878;2023-07-16T05:48:59;15.95;;;8.05;;
23282;SDS011;11810;51.178;3.878;2023-07-16T05:51:25;15.90;;;8.23;;
23282;SDS011;11810;51.178;3.878;2023-07-16T05:53:51;13.82;;;7.20;;
23282;SDS011;11810;51.178;3.878;2023-07-16T05:56:17;17.85;;;8.50;;
23282;SDS011;11810;51.178;3.878;2023-07-16T05:58:43;17.13;;;8.32;;
23282;SDS011;11810;51.178;3.878;2023-07-16T06:01:09;15.60;;;8.10;;
23282;SDS011;11810;51.178;3.878;2023-07-16T06:03:34;12.95;;;7.50;;
23282;SDS011;11810;51.178;3.878;2023-07-16T06:06:00;17.00;;;7.65;;
23282;SDS011;11810;51.178;3.878;2023-07-16T06:08:26;18.23;;;7.88;;
23282;SDS011;11810;51.178;3.878;2023-07-16T06:10:52;19.75;;;8.82;;
23282;SDS011;11810;51.178;3.878;2023-07-16T06:13:18;15.48;;;8.18;;
23282;SDS011;11810;51.178;3.878;2023-07-16T06:15:45;16.40;;;8.35;;
23282;SDS011;11810;51.178;3.878;2023-07-16T06:18:14;17.77;;;7.90;;
23282;SDS011;11810;51.178;3.878;2023-07-16T06:20:43;13.75;;;7.97;;
23282;SDS011;11810;51.178;3.878;2023-07-16T06:23:10;18.23;;;8.48;;
23282;SDS011;11810;51.178;3.878;2023-07-16T06:25:36;20.35;;;8.07;;
23282;SDS011;11810;51.178;3.878;2023-07-16T06:28:03;16.80;;;8.35;;
23282;SDS011;11810;51.178;3.878;2023-07-16T06:30:29;16.33;;;8.57;;
23282;SDS011;11810;51.178;3.878;2023-07-16T06:32:57;15.10;;;7.78;;
23282;SDS011;11810;51.178;3.878;2023-07-16T06:35:23;17.27;;;8.38;;
23282;SDS011;11810;51.178;3.878;2023-07-16T06:37:49;20.25;;;7.32;;
23282;SDS011;11810;51.178;3.878;2023-07-16T06:40:15;17.20;;;7.80;;
23282;SDS011;11810;51.178;3.878;2023-07-16T06:42:41;15.25;;;7.53;;
23282;SDS011;11810;51.178;3.878;2023-07-16T06:45:07;17.80;;;8.65;;
23282;SDS011;11810;51.178;3.878;2023-07-16T06:47:34;18.80;;;8.13;;
23282;SDS011;11810;51.178;3.878;2023-07-16T06:50:00;16.70;;;7.70;;
23282;SDS011;11810;51.178;3.878;2023-07-16T06:52:25;27.98;;;8.55;;
23282;SDS011;11810;51.178;3.878;2023-07-16T06:54:55;14.75;;;7.40;;
23282;SDS011;11810;51.178;3.878;2023-07-16T06:57:22;15.27;;;7.57;;
23282;SDS011;11810;51.178;3.878;2023-07-16T06:59:48;17.20;;;7.75;;
23282;SDS011;11810;51.178;3.878;2023-07-16T07:02:15;17.50;;;8.07;;
23282;SDS011;11810;51.178;3.878;2023-07-16T07:04:41;19.05;;;7.38;;
23282;SDS011;11810;51.178;3.878;2023-07-16T07:07:07;18.05;;;8.40;;
23282;SDS011;11810;51.178;3.878;2023-07-16T07:09:33;18.58;;;8.30;;
23282;SDS011;11810;51.178;3.878;2023-07-16T07:12:00;16.52;;;7.70;;
23282;SDS011;11810;51.178;3.878;2023-07-16T07:14:26;16.25;;;8.77;;
23282;SDS011;11810;51.178;3.878;2023-07-16T07:16:52;16.98;;;8.00;;
23282;SDS011;11810;51.178;3.878;2023-07-16T07:19:18;17.67;;;8.27;;
23282;SDS011;11810;51.178;3.878;2023-07-16T07:21:44;14.38;;;7.15;;
23282;SDS011;11810;51.178;3.878;2023-07-16T07:24:10;18.15;;;7.18;;
23282;SDS011;11810;51.178;3.878;2023-07-16T07:26:36;14.95;;;7.57;;
23282;SDS011;11810;51.178;3.878;2023-07-16T07:29:02;17.42;;;7.10;;
23282;SDS011;11810;51.178;3.878;2023-07-16T07:31:27;15.75;;;7.18;;
23282;SDS011;11810;51.178;3.878;2023-07-16T07:33:53;15.88;;;8.13;;
23282;SDS011;11810;51.178;3.878;2023-07-16T07:36:22;15.48;;;7.78;;
23282;SDS011;11810;51.178;3.878;2023-07-16T07:38:48;15.85;;;7.30;;
23282;SDS011;11810;51.178;3.878;2023-07-16T07:41:14;13.73;;;7.15;;
23282;SDS011;11810;51.178;3.878;2023-07-16T07:43:40;14.95;;;6.68;;
23282;SDS011;11810;51.178;3.878;2023-07-16T07:46:06;16.55;;;7.72;;
23282;SDS011;11810;51.178;3.878;2023-07-16T07:48:32;16.08;;;6.93;;
23282;SDS011;11810;51.178;3.878;2023-07-16T07:50:57;14.25;;;6.57;;
23282;SDS011;11810;51.178;3.878;2023-07-16T07:53:23;15.63;;;7.07;;
23282;SDS011;11810;51.178;3.878;2023-07-16T07:55:49;13.85;;;6.57;;
23282;SDS011;11810;51.178;3.878;2023-07-16T07:58:15;13.85;;;6.55;;
23282;SDS011;11810;51.178;3.878;2023-07-16T08:00:41;17.50;;;7.72;;
23282;SDS011;11810;51.178;3.878;2023-07-16T08:03:07;14.63;;;7.22;;
23282;SDS011;11810;51.178;3.878;2023-07-16T08:05:33;15.48;;;7.13;;
23282;SDS011;11810;51.178;3.878;2023-07-16T08:07:59;17.73;;;7.53;;
23282;SDS011;11810;51.178;3.878;2023-07-16T08:10:25;18.25;;;7.68;;
23282;SDS011;11810;51.178;3.878;2023-07-16T08:12:51;15.90;;;7.03;;
23282;SDS011;11810;51.178;3.878;2023-07-16T08:15:17;20.98;;;6.97;;
23282;SDS011;11810;51.178;3.878;2023-07-16T08:17:44;11.60;;;6.30;;
23282;SDS011;11810;51.178;3.878;2023-07-16T08:20:11;12.63;;;6.68;;
23282;SDS011;11810;51.178;3.878;2023-07-16T08:22:37;16.67;;;7.22;;
23282;SDS011;11810;51.178;3.878;2023-07-16T08:25:04;18.10;;;7.20;;
23282;SDS011;11810;51.178;3.878;2023-07-16T08:27:30;13.43;;;6.72;;
23282;SDS011;11810;51.178;3.878;2023-07-16T08:29:56;10.75;;;6.43;;
23282;SDS011;11810;51.178;3.878;2023-07-16T08:32:23;14.70;;;7.55;;
23282;SDS011;11810;51.178;3.878;2023-07-16T08:34:49;17.02;;;6.82;;
23282;SDS011;11810;51.178;3.878;2023-07-16T08:37:15;11.55;;;6.57;;
23282;SDS011;11810;51.178;3.878;2023-07-16T08:39:41;16.52;;;6.90;;
23282;SDS011;11810;51.178;3.878;2023-07-16T08:42:08;14.20;;;6.30;;
23282;SDS011;11810;51.178;3.878;2023-07-16T08:44:38;15.07;;;7.30;;
23282;SDS011;11810;51.178;3.878;2023-07-16T08:47:05;14.57;;;7.40;;
23282;SDS011;11810;51.178;3.878;2023-07-16T08:49:34;18.02;;;7.28;;
23282;SDS011;11810;51.178;3.878;2023-07-16T08:52:01;12.88;;;6.68;;
23282;SDS011;11810;51.178;3.878;2023-07-16T08:54:28;16.85;;;7.78;;
23282;SDS011;11810;51.178;3.878;2023-07-16T08:56:54;20.20;;;7.38;;
23282;SDS011;11810;51.178;3.878;2023-07-16T08:59:21;14.25;;;6.40;;
23282;SDS011;11810;51.178;3.878;2023-07-16T09:01:47;19.83;;;6.85;;
23282;SDS011;11810;51.178;3.878;2023-07-16T09:04:14;22.00;;;8.20;;
23282;SDS011;11810;51.178;3.878;2023-07-16T09:06:42;19.55;;;7.32;;
23282;SDS011;11810;51.178;3.878;2023-07-16T09:09:08;13.25;;;7.43;;
23282;SDS011;11810;51.178;3.878;2023-07-16T09:11:45;13.95;;;6.45;;
23282;SDS011;11810;51.178;3.878;2023-07-16T09:14:14;18.08;;;7.47;;
23282;SDS011;11810;51.178;3.878;2023-07-16T09:16:47;13.63;;;6.95;;
23282;SDS011;11810;51.178;3.878;2023-07-16T09:19:14;13.68;;;6.72;;
23282;SDS011;11810;51.178;3.878;2023-07-16T09:21:42;18.30;;;8.02;;
23282;SDS011;11810;51.178;3.878;2023-07-16T09:24:10;17.65;;;8.20;;
23282;SDS011;11810;51.178;3.878;2023-07-16T09:26:37;15.57;;;7.90;;
23282;SDS011;11810;51.178;3.878;2023-07-16T09:29:07;20.08;;;8.60;;
23282;SDS011;11810;51.178;3.878;2023-07-16T09:31:33;21.08;;;8.32;;
23282;SDS011;11810;51.178;3.878;2023-07-16T09:33:59;16.35;;;7.53;;
23282;SDS011;11810;51.178;3.878;2023-07-16T09:36:25;18.25;;;7.70;;
23282;SDS011;11810;51.178;3.878;2023-07-16T09:38:52;19.65;;;8.02;;
23282;SDS011;11810;51.178;3.878;2023-07-16T09:41:20;18.58;;;8.00;;
23282;SDS011;11810;51.178;3.878;2023-07-16T09:43:47;15.68;;;7.55;;
23282;SDS011;11810;51.178;3.878;2023-07-16T09:46:12;15.10;;;7.97;;
23282;SDS011;11810;51.178;3.878;2023-07-16T09:48:38;9.85;;;5.10;;
23282;SDS011;11810;51.178;3.878;2023-07-16T09:51:04;13.05;;;4.60;;
23282;SDS011;11810;51.178;3.878;2023-07-16T09:53:36;8.93;;;3.60;;
23282;SDS011;11810;51.178;3.878;2023-07-16T09:56:03;7.47;;;3.08;;
23282;SDS011;11810;51.178;3.878;2023-07-16T09:58:30;6.22;;;2.17;;
23282;SDS011;11810;51.178;3.878;2023-07-16T10:00:57;7.38;;;2.67;;
23282;SDS011;11810;51.178;3.878;2023-07-16T10:03:24;4.70;;;1.70;;
23282;SDS011;11810;51.178;3.878;2023-07-16T10:05:50;6.10;;;2.15;;
23282;SDS011;11810;51.178;3.878;2023-07-16T10:08:17;4.90;;;1.55;;
23282;SDS011;11810;51.178;3.878;2023-07-16T10:10:48;3.83;;;1.25;;
23282;SDS011;11810;51.178;3.878;2023-07-16T10:13:23;4.30;;;1.80;;
23282;SDS011;11810;51.178;3.878;2023-07-16T10:18:23;6.60;;;1.85;;
23282;SDS011;11810;51.178;3.878;2023-07-16T10:20:49;3.45;;;1.60;;
23282;SDS011;11810;51.178;3.878;2023-07-16T10:23:16;7.35;;;2.10;;
23282;SDS011;11810;51.178;3.878;2023-07-16T10:25:59;5.55;;;2.00;;
23282;SDS011;11810;51.178;3.878;2023-07-16T10:28:31;5.80;;;2.38;;
23282;SDS011;11810;51.178;3.878;2023-07-16T10:30:58;4.00;;;1.80;;
23282;SDS011;11810;51.178;3.878;2023-07-16T10:33:24;4.70;;;1.10;;
23282;SDS011;11810;51.178;3.878;2023-07-16T10:35:50;5.60;;;1.85;;
23282;SDS011;11810;51.178;3.878;2023-07-16T10:38:15;4.45;;;1.63;;
23282;SDS011;11810;51.178;3.878;2023-07-16T10:40:42;3.05;;;1.10;;
23282;SDS011;11810;51.178;3.878;2023-07-16T10:43:09;5.55;;;1.20;;
23282;SDS011;11810;51.178;3.878;2023-07-16T10:45:35;4.97;;;0.93;;
23282;SDS011;11810;51.178;3.878;2023-07-16T10:48:02;4.47;;;1.10;;
23282;SDS011;11810;51.178;3.878;2023-07-16T10:50:28;2.78;;;1.17;;
23282;SDS011;11810;51.178;3.878;2023-07-16T10:52:57;2.17;;;1.00;;
23282;SDS011;11810;51.178;3.878;2023-07-16T10:55:23;4.07;;;1.15;;
23282;SDS011;11810;51.178;3.878;2023-07-16T10:57:51;8.68;;;1.42;;
23282;SDS011;11810;51.178;3.878;2023-07-16T11:00:18;4.60;;;1.40;;
23282;SDS011;11810;51.178;3.878;2023-07-16T11:02:46;7.75;;;1.30;;
23282;SDS011;11810;51.178;3.878;2023-07-16T11:05:12;2.90;;;1.13;;
23282;SDS011;11810;51.178;3.878;2023-07-16T11:07:46;3.83;;;1.35;;
23282;SDS011;11810;51.178;3.878;2023-07-16T11:10:15;4.90;;;1.48;;
23282;SDS011;11810;51.178;3.878;2023-07-16T11:12:42;6.10;;;1.38;;
23282;SDS011;11810;51.178;3.878;2023-07-16T11:15:08;5.57;;;1.77;;
23282;SDS011;11810;51.178;3.878;2023-07-16T11:17:36;5.00;;;1.60;;
23282;SDS011;11810;51.178;3.878;2023-07-16T11:20:04;4.60;;;1.70;;
23282;SDS011;11810;51.178;3.878;2023-07-16T11:22:36;6.18;;;1.92;;
23282;SDS011;11810;51.178;3.878;2023-07-16T11:25:04;6.95;;;1.95;;
23282;SDS011;11810;51.178;3.878;2023-07-16T11:27:36;5.95;;;2.05;;
23282;SDS011;11810;51.178;3.878;2023-07-16T11:30:05;7.95;;;2.30;;
23282;SDS011;11810;51.178;3.878;2023-07-16T11:32:35;7.63;;;2.03;;
23282;SDS011;11810;51.178;3.878;2023-07-16T11:35:03;7.75;;;2.50;;
23282;SDS011;11810;51.178;3.878;2023-07-16T11:37:31;4.25;;;2.00;;
23282;SDS011;11810;51.178;3.878;2023-07-16T11:40:00;6.93;;;2.13;;
23282;SDS011;11810;51.178;3.878;2023-07-16T11:42:34;5.22;;;2.15;;
23282;SDS011;11810;51.178;3.878;2023-07-16T11:45:03;6.07;;;2.08;;
23282;SDS011;11810;51.178;3.878;2023-07-16T11:47:29;5.72;;;1.90;;
23282;SDS011;11810;51.178;3.878;2023-07-16T11:49:56;4.70;;;2.25;;
23282;SDS011;11810;51.178;3.878;2023-07-16T11:52:29;7.68;;;2.47;;
23282;SDS011;11810;51.178;3.878;2023-07-16T11:54:56;8.77;;;2.30;;
23282;SDS011;11810;51.178;3.878;2023-07-16T11:57:26;6.03;;;2.03;;
23282;SDS011;11810;51.178;3.878;2023-07-16T11:59:52;6.50;;;2.22;;
23282;SDS011;11810;51.178;3.878;2023-07-16T12:02:19;4.00;;;1.95;;
23282;SDS011;11810;51.178;3.878;2023-07-16T12:04:46;7.78;;;2.17;;
23282;SDS011;11810;51.178;3.878;2023-07-16T12:07:12;8.65;;;2.17;;
23282;SDS011;11810;51.178;3.878;2023-07-16T12:09:38;5.68;;;2.47;;
23282;SDS011;11810;51.178;3.878;2023-07-16T12:12:04;6.47;;;2.17;;
23282;SDS011;11810;51.178;3.878;2023-07-16T12:14:31;4.90;;;1.98;;
23282;SDS011;11810;51.178;3.878;2023-07-16T12:16:57;6.32;;;2.30;;
23282;SDS011;11810;51.178;3.878;2023-07-16T12:19:24;6.00;;;2.05;;
23282;SDS011;11810;51.178;3.878;2023-07-16T12:21:50;5.95;;;2.25;;
23282;SDS011;11810;51.178;3.878;2023-07-16T12:24:16;5.05;;;2.53;;
23282;SDS011;11810;51.178;3.878;2023-07-16T12:26:42;6.47;;;2.38;;
23282;SDS011;11810;51.178;3.878;2023-07-16T12:29:08;7.45;;;2.38;;
23282;SDS011;11810;51.178;3.878;2023-07-16T12:31:34;5.60;;;1.80;;
23282;SDS011;11810;51.178;3.878;2023-07-16T12:34:00;5.47;;;1.95;;
23282;SDS011;11810;51.178;3.878;2023-07-16T12:36:29;6.05;;;1.98;;
23282;SDS011;11810;51.178;3.878;2023-07-16T12:38:56;4.72;;;1.60;;
23282;SDS011;11810;51.178;3.878;2023-07-16T12:41:22;5.03;;;2.15;;
23282;SDS011;11810;51.178;3.878;2023-07-16T12:43:48;7.53;;;1.73;;
23282;SDS011;11810;51.178;3.878;2023-07-16T12:46:14;6.35;;;2.20;;
23282;SDS011;11810;51.178;3.878;2023-07-16T12:48:40;5.25;;;2.20;;
23282;SDS011;11810;51.178;3.878;2023-07-16T12:51:06;6.43;;;1.85;;
23282;SDS011;11810;51.178;3.878;2023-07-16T12:53:32;5.10;;;1.95;;
23282;SDS011;11810;51.178;3.878;2023-07-16T12:55:58;4.10;;;1.98;;
23282;SDS011;11810;51.178;3.878;2023-07-16T12:58:24;6.65;;;1.65;;
23282;SDS011;11810;51.178;3.878;2023-07-16T13:00:51;7.82;;;2.10;;
23282;SDS011;11810;51.178;3.878;2023-07-16T13:03:17;6.78;;;1.92;;
23282;SDS011;11810;51.178;3.878;2023-07-16T13:05:43;8.52;;;2.00;;
23282;SDS011;11810;51.178;3.878;2023-07-16T13:08:10;3.88;;;1.92;;
23282;SDS011;11810;51.178;3.878;2023-07-16T13:10:36;6.32;;;2.05;;
23282;SDS011;11810;51.178;3.878;2023-07-16T13:13:02;3.72;;;1.80;;
23282;SDS011;11810;51.178;3.878;2023-07-16T13:15:28;4.65;;;2.10;;
23282;SDS011;11810;51.178;3.878;2023-07-16T13:17:54;5.57;;;1.90;;
23282;SDS011;11810;51.178;3.878;2023-07-16T13:20:20;8.02;;;2.53;;
23282;SDS011;11810;51.178;3.878;2023-07-16T13:22:47;7.07;;;2.33;;
23282;SDS011;11810;51.178;3.878;2023-07-16T13:25:13;5.63;;;2.20;;
23282;SDS011;11810;51.178;3.878;2023-07-16T13:27:39;6.97;;;2.13;;
23282;SDS011;11810;51.178;3.878;2023-07-16T13:30:06;7.57;;;2.20;;
23282;SDS011;11810;51.178;3.878;2023-07-16T13:32:32;5.38;;;2.53;;
23282;SDS011;11810;51.178;3.878;2023-07-16T13:34:58;5.43;;;1.92;;
23282;SDS011;11810;51.178;3.878;2023-07-16T13:37:24;8.40;;;2.28;;
23282;SDS011;11810;51.178;3.878;2023-07-16T13:39:50;4.28;;;2.05;;
23282;SDS011;11810;51.178;3.878;2023-07-16T13:42:16;5.75;;;1.88;;
23282;SDS011;11810;51.178;3.878;2023-07-16T13:44:42;3.15;;;1.70;;
23282;SDS011;11810;51.178;3.878;2023-07-16T13:47:08;5.47;;;1.63;;
23282;SDS011;11810;51.178;3.878;2023-07-16T13:49:34;3.50;;;1.75;;
23282;SDS011;11810;51.178;3.878;2023-07-16T13:52:00;8.30;;;2.20;;
23282;SDS011;11810;51.178;3.878;2023-07-16T13:54:26;6.20;;;2.15;;
23282;SDS011;11810;51.178;3.878;2023-07-16T13:56:51;6.15;;;2.13;;
23282;SDS011;11810;51.178;3.878;2023-07-16T13:59:17;6.43;;;1.70;;
23282;SDS011;11810;51.178;3.878;2023-07-16T14:01:43;8.75;;;2.08;;
23282;SDS011;11810;51.178;3.878;2023-07-16T14:04:09;5.75;;;2.42;;
23282;SDS011;11810;51.178;3.878;2023-07-16T14:06:35;7.05;;;2.20;;
23282;SDS011;11810;51.178;3.878;2023-07-16T14:09:01;4.70;;;1.88;;
23282;SDS011;11810;51.178;3.878;2023-07-16T14:11:29;7.53;;;2.50;;
23282;SDS011;11810;51.178;3.878;2023-07-16T14:13:56;5.72;;;1.83;;
23282;SDS011;11810;51.178;3.878;2023-07-16T14:16:21;4.90;;;1.88;;
23282;SDS011;11810;51.178;3.878;2023-07-16T14:18:51;5.63;;;2.22;;
23282;SDS011;11810;51.178;3.878;2023-07-16T14:21:18;5.25;;;2.30;;
23282;SDS011;11810;51.178;3.878;2023-07-16T14:23:44;6.80;;;1.92;;
23282;SDS011;11810;51.178;3.878;2023-07-16T14:26:10;5.55;;;1.85;;
23282;SDS011;11810;51.178;3.878;2023-07-16T14:28:35;4.80;;;2.08;;
23282;SDS011;11810;51.178;3.878;2023-07-16T14:31:02;3.72;;;1.75;;
23282;SDS011;11810;51.178;3.878;2023-07-16T14:33:28;6.32;;;1.85;;
23282;SDS011;11810;51.178;3.878;2023-07-16T14:35:54;6.10;;;2.03;;
23282;SDS011;11810;51.178;3.878;2023-07-16T14:38:21;9.55;;;2.25;;
23282;SDS011;11810;51.178;3.878;2023-07-16T14:40:47;6.43;;;1.60;;
23282;SDS011;11810;51.178;3.878;2023-07-16T14:43:14;7.47;;;2.17;;
23282;SDS011;11810;51.178;3.878;2023-07-16T14:45:40;5.78;;;2.28;;
23282;SDS011;11810;51.178;3.878;2023-07-16T14:48:06;5.85;;;2.08;;
23282;SDS011;11810;51.178;3.878;2023-07-16T14:50:32;5.53;;;1.88;;